sensor_id;sensor_type;location;lat;lon;timestamp;temperature;humidity
1958;DHT22;979;51.076;13.748;2022-09-25T00:02:03;12.80;72.40
1958;DHT22;979;51.076;13.748;2022-09-25T00:04:31;12.80;72.50
1958;DHT22;979;51.076;13.748;2022-09-25T00:06:59;12.80;72.60
1958;DHT22;979;51.076;13.748;2022-09-25T00:09:28;12.80;72.60
1958;DHT22;979;51.076;13.748;2022-09-25T00:11:56;12.70;73.30
1958;DHT22;979;51.076;13.748;2022-09-25T00:14:26;12.90;72.90
1958;DHT22;979;51.076;13.748;2022-09-25T00:16:54;13.10;73.00
1958;DHT22;979;51.076;13.748;2022-09-25T00:19:22;12.80;72.90
1958;DHT22;979;51.076;13.748;2022-09-25T00:22:08;12.80;72.60
1958;DHT22;979;51.076;13.748;2022-09-25T00:24:36;12.80;72.60
1958;DHT22;979;51.076;13.748;2022-09-25T00:27:04;13.00;73.00
1958;DHT22;979;51.076;13.748;2022-09-25T00:29:37;12.80;72.80
1958;DHT22;979;51.076;13.748;2022-09-25T00:32:07;13.10;73.00
1958;DHT22;979;51.076;13.748;2022-09-25T00:34:36;12.90;72.80
1958;DHT22;979;51.076;13.748;2022-09-25T00:37:05;13.00;72.90
1958;DHT22;979;51.076;13.748;2022-09-25T00:39:33;13.20;73.10
1958;DHT22;979;51.076;13.748;2022-09-25T00:42:01;13.00;72.90
1958;DHT22;979;51.076;13.748;2022-09-25T00:44:57;13.10;72.90
1958;DHT22;979;51.076;13.748;2022-09-25T00:47:46;13.10;72.90
1958;DHT22;979;51.076;13.748;2022-09-25T00:50:28;13.10;72.80
1958;DHT22;979;51.076;13.748;2022-09-25T00:53:00;13.00;72.70
1958;DHT22;979;51.076;13.748;2022-09-25T00:55:30;13.30;73.20
1958;DHT22;979;51.076;13.748;2022-09-25T00:58:01;13.00;73.00
1958;DHT22;979;51.076;13.748;2022-09-25T01:00:32;13.00;73.10
1958;DHT22;979;51.076;13.748;2022-09-25T01:03:00;13.00;73.30
1958;DHT22;979;51.076;13.748;2022-09-25T01:05:33;13.10;73.30
1958;DHT22;979;51.076;13.748;2022-09-25T01:08:04;13.10;73.40
1958;DHT22;979;51.076;13.748;2022-09-25T01:10:35;13.40;73.70
1958;DHT22;979;51.076;13.748;2022-09-25T01:13:04;13.20;73.60
1958;DHT22;979;51.076;13.748;2022-09-25T01:15:42;13.20;73.40
1958;DHT22;979;51.076;13.748;2022-09-25T01:18:18;13.20;73.40
1958;DHT22;979;51.076;13.748;2022-09-25T01:21:05;13.50;73.80
1958;DHT22;979;51.076;13.748;2022-09-25T01:26:55;13.30;73.30
1958;DHT22;979;51.076;13.748;2022-09-25T01:29:35;13.30;73.10
1958;DHT22;979;51.076;13.748;2022-09-25T01:32:10;13.30;73.00
1958;DHT22;979;51.076;13.748;2022-09-25T01:34:44;13.30;73.80
1958;DHT22;979;51.076;13.748;2022-09-25T01:37:21;13.40;73.20
1958;DHT22;979;51.076;13.748;2022-09-25T01:39:56;13.50;73.50
1958;DHT22;979;51.076;13.748;2022-09-25T01:42:30;13.50;73.40
1958;DHT22;979;51.076;13.748;2022-09-25T01:45:02;13.80;73.70
1958;DHT22;979;51.076;13.748;2022-09-25T01:47:35;13.80;73.70
1958;DHT22;979;51.076;13.748;2022-09-25T01:50:07;13.90;73.80
1958;DHT22;979;51.076;13.748;2022-09-25T01:52:39;13.60;73.40
1958;DHT22;979;51.076;13.748;2022-09-25T01:55:13;13.60;73.40
1958;DHT22;979;51.076;13.748;2022-09-25T01:57:45;13.80;73.60
1958;DHT22;979;51.076;13.748;2022-09-25T02:00:20;13.80;73.60
1958;DHT22;979;51.076;13.748;2022-09-25T02:02:54;13.70;73.50
1958;DHT22;979;51.076;13.748;2022-09-25T02:05:27;13.70;73.60
1958;DHT22;979;51.076;13.748;2022-09-25T02:08:00;13.90;73.70
1958;DHT22;979;51.076;13.748;2022-09-25T02:10:33;13.80;73.60
1958;DHT22;979;51.076;13.748;2022-09-25T02:13:07;13.60;73.30
1958;DHT22;979;51.076;13.748;2022-09-25T02:15:41;13.60;73.40
1958;DHT22;979;51.076;13.748;2022-09-25T02:18:12;13.90;73.80
1958;DHT22;979;51.076;13.748;2022-09-25T02:21:08;13.70;73.60
1958;DHT22;979;51.076;13.748;2022-09-25T02:23:46;14.00;73.80
1958;DHT22;979;51.076;13.748;2022-09-25T02:26:21;14.00;73.80
1958;DHT22;979;51.076;13.748;2022-09-25T02:28:51;13.80;73.60
1958;DHT22;979;51.076;13.748;2022-09-25T02:31:25;14.10;74.10
1958;DHT22;979;51.076;13.748;2022-09-25T02:33:59;13.80;74.10
1958;DHT22;979;51.076;13.748;2022-09-25T02:36:28;13.90;73.80
1958;DHT22;979;51.076;13.748;2022-09-25T02:38:58;14.00;73.90
1958;DHT22;979;51.076;13.748;2022-09-25T02:41:43;13.90;73.70
1958;DHT22;979;51.076;13.748;2022-09-25T02:44:20;13.90;73.80
1958;DHT22;979;51.076;13.748;2022-09-25T02:46:58;13.80;73.70
1958;DHT22;979;51.076;13.748;2022-09-25T02:49:39;13.90;73.80
1958;DHT22;979;51.076;13.748;2022-09-25T02:52:16;13.90;74.20
1958;DHT22;979;51.076;13.748;2022-09-25T02:54:50;13.90;73.80
1958;DHT22;979;51.076;13.748;2022-09-25T02:57:27;14.00;73.80
1958;DHT22;979;51.076;13.748;2022-09-25T03:00:00;14.30;74.10
1958;DHT22;979;51.076;13.748;2022-09-25T03:02:33;14.00;73.80
1958;DHT22;979;51.076;13.748;2022-09-25T03:05:07;14.00;74.00
1958;DHT22;979;51.076;13.748;2022-09-25T03:07:38;13.90;73.80
1958;DHT22;979;51.076;13.748;2022-09-25T03:10:21;14.00;74.10
1958;DHT22;979;51.076;13.748;2022-09-25T03:12:50;14.00;74.00
1958;DHT22;979;51.076;13.748;2022-09-25T03:15:19;14.00;74.20
1958;DHT22;979;51.076;13.748;2022-09-25T03:17:51;14.00;74.30
1958;DHT22;979;51.076;13.748;2022-09-25T03:20:19;14.10;74.40
1958;DHT22;979;51.076;13.748;2022-09-25T03:22:47;14.00;74.20
1958;DHT22;979;51.076;13.748;2022-09-25T03:25:15;13.90;74.00
1958;DHT22;979;51.076;13.748;2022-09-25T03:27:45;14.20;74.60
1958;DHT22;979;51.076;13.748;2022-09-25T03:30:16;14.00;74.40
1958;DHT22;979;51.076;13.748;2022-09-25T03:32:44;14.00;74.70
1958;DHT22;979;51.076;13.748;2022-09-25T03:35:17;14.00;74.50
1958;DHT22;979;51.076;13.748;2022-09-25T03:37:48;14.30;74.60
1958;DHT22;979;51.076;13.748;2022-09-25T03:40:24;13.90;74.80
1958;DHT22;979;51.076;13.748;2022-09-25T03:42:52;14.10;74.40
1958;DHT22;979;51.076;13.748;2022-09-25T03:45:20;14.30;74.70
1958;DHT22;979;51.076;13.748;2022-09-25T03:47:54;14.00;75.20
1958;DHT22;979;51.076;13.748;2022-09-25T03:50:45;14.00;74.40
1958;DHT22;979;51.076;13.748;2022-09-25T03:53:57;14.10;74.40
1958;DHT22;979;51.076;13.748;2022-09-25T03:56:27;14.10;74.70
1958;DHT22;979;51.076;13.748;2022-09-25T03:58:57;14.10;74.60
1958;DHT22;979;51.076;13.748;2022-09-25T04:01:26;14.00;74.30
1958;DHT22;979;51.076;13.748;2022-09-25T04:03:58;14.30;74.70
1958;DHT22;979;51.076;13.748;2022-09-25T04:06:28;14.00;74.70
1958;DHT22;979;51.076;13.748;2022-09-25T04:08:56;14.00;74.90
1958;DHT22;979;51.076;13.748;2022-09-25T04:11:27;14.00;74.80
1958;DHT22;979;51.076;13.748;2022-09-25T04:13:55;14.00;74.80
1958;DHT22;979;51.076;13.748;2022-09-25T04:16:23;14.20;75.20
1958;DHT22;979;51.076;13.748;2022-09-25T04:18:58;14.00;74.80
1958;DHT22;979;51.076;13.748;2022-09-25T04:21:28;14.10;75.00
1958;DHT22;979;51.076;13.748;2022-09-25T04:23:59;14.30;75.50
1958;DHT22;979;51.076;13.748;2022-09-25T04:26:45;14.00;74.80
1958;DHT22;979;51.076;13.748;2022-09-25T04:29:16;14.00;75.00
1958;DHT22;979;51.076;13.748;2022-09-25T04:31:44;14.00;75.00
1958;DHT22;979;51.076;13.748;2022-09-25T04:34:33;14.00;74.80
1958;DHT22;979;51.076;13.748;2022-09-25T04:37:02;14.00;75.10
1958;DHT22;979;51.076;13.748;2022-09-25T04:39:30;14.20;75.00
1958;DHT22;979;51.076;13.748;2022-09-25T04:42:09;14.20;75.40
1958;DHT22;979;51.076;13.748;2022-09-25T04:44:37;14.10;75.10
1958;DHT22;979;51.076;13.748;2022-09-25T04:47:06;14.20;75.20
1958;DHT22;979;51.076;13.748;2022-09-25T04:49:34;14.10;75.20
1958;DHT22;979;51.076;13.748;2022-09-25T04:52:07;14.10;75.20
1958;DHT22;979;51.076;13.748;2022-09-25T04:54:37;14.20;75.30
1958;DHT22;979;51.076;13.748;2022-09-25T04:57:08;14.30;75.30
1958;DHT22;979;51.076;13.748;2022-09-25T04:59:38;14.30;75.30
1958;DHT22;979;51.076;13.748;2022-09-25T05:02:06;14.20;75.30
1958;DHT22;979;51.076;13.748;2022-09-25T05:04:35;14.40;75.50
1958;DHT22;979;51.076;13.748;2022-09-25T05:07:04;14.40;75.50
1958;DHT22;979;51.076;13.748;2022-09-25T05:09:34;14.40;75.50
1958;DHT22;979;51.076;13.748;2022-09-25T05:12:02;14.20;75.60
1958;DHT22;979;51.076;13.748;2022-09-25T05:14:33;14.20;75.50
1958;DHT22;979;51.076;13.748;2022-09-25T05:17:02;14.20;75.40
1958;DHT22;979;51.076;13.748;2022-09-25T05:19:31;14.20;75.50
1958;DHT22;979;51.076;13.748;2022-09-25T05:22:02;14.30;75.90
1958;DHT22;979;51.076;13.748;2022-09-25T05:24:30;14.50;75.80
1958;DHT22;979;51.076;13.748;2022-09-25T05:27:00;14.30;75.90
1958;DHT22;979;51.076;13.748;2022-09-25T05:29:30;14.30;75.90
1958;DHT22;979;51.076;13.748;2022-09-25T05:31:58;14.30;75.80
1958;DHT22;979;51.076;13.748;2022-09-25T05:34:29;14.30;75.90
1958;DHT22;979;51.076;13.748;2022-09-25T05:37:02;14.50;76.10
1958;DHT22;979;51.076;13.748;2022-09-25T05:39:30;14.30;75.60
1958;DHT22;979;51.076;13.748;2022-09-25T05:42:00;14.40;75.70
1958;DHT22;979;51.076;13.748;2022-09-25T05:44:29;14.50;75.80
1958;DHT22;979;51.076;13.748;2022-09-25T05:46:57;14.30;75.90
1958;DHT22;979;51.076;13.748;2022-09-25T05:49:25;14.30;75.80
1958;DHT22;979;51.076;13.748;2022-09-25T05:51:54;14.40;75.90
1958;DHT22;979;51.076;13.748;2022-09-25T05:54:22;14.40;75.70
1958;DHT22;979;51.076;13.748;2022-09-25T05:56:55;14.40;75.90
1958;DHT22;979;51.076;13.748;2022-09-25T05:59:27;14.40;75.90
1958;DHT22;979;51.076;13.748;2022-09-25T06:01:56;14.60;76.20
1958;DHT22;979;51.076;13.748;2022-09-25T06:04:24;14.40;75.90
1958;DHT22;979;51.076;13.748;2022-09-25T06:06:52;14.40;75.90
1958;DHT22;979;51.076;13.748;2022-09-25T06:09:21;14.60;76.10
1958;DHT22;979;51.076;13.748;2022-09-25T06:11:49;14.50;76.10
1958;DHT22;979;51.076;13.748;2022-09-25T06:14:19;14.50;76.10
1958;DHT22;979;51.076;13.748;2022-09-25T06:16:49;14.50;75.90
1958;DHT22;979;51.076;13.748;2022-09-25T06:19:18;14.60;76.10
1958;DHT22;979;51.076;13.748;2022-09-25T06:21:46;14.60;75.90
1958;DHT22;979;51.076;13.748;2022-09-25T06:24:15;14.60;75.80
1958;DHT22;979;51.076;13.748;2022-09-25T06:26:43;14.70;76.00
1958;DHT22;979;51.076;13.748;2022-09-25T06:29:12;14.70;76.10
1958;DHT22;979;51.076;13.748;2022-09-25T06:31:40;14.80;76.00
1958;DHT22;979;51.076;13.748;2022-09-25T06:34:10;14.90;76.10
1958;DHT22;979;51.076;13.748;2022-09-25T06:36:38;14.90;76.10
1958;DHT22;979;51.076;13.748;2022-09-25T06:39:07;15.00;76.00
1958;DHT22;979;51.076;13.748;2022-09-25T06:41:35;15.10;76.00
1958;DHT22;979;51.076;13.748;2022-09-25T06:44:05;15.20;76.00
1958;DHT22;979;51.076;13.748;2022-09-25T06:46:35;15.20;76.10
1958;DHT22;979;51.076;13.748;2022-09-25T06:49:03;15.40;76.10
1958;DHT22;979;51.076;13.748;2022-09-25T06:51:35;15.20;75.80
1958;DHT22;979;51.076;13.748;2022-09-25T06:54:05;15.30;76.00
1958;DHT22;979;51.076;13.748;2022-09-25T06:56:33;15.30;75.80
1958;DHT22;979;51.076;13.748;2022-09-25T06:59:02;15.20;75.60
1958;DHT22;979;51.076;13.748;2022-09-25T07:01:40;15.20;75.30
1958;DHT22;979;51.076;13.748;2022-09-25T07:04:11;15.30;75.40
1958;DHT22;979;51.076;13.748;2022-09-25T07:06:41;15.20;75.40
1958;DHT22;979;51.076;13.748;2022-09-25T07:09:19;15.30;75.50
1958;DHT22;979;51.076;13.748;2022-09-25T07:11:47;15.30;75.60
1958;DHT22;979;51.076;13.748;2022-09-25T07:14:20;15.40;75.60
1958;DHT22;979;51.076;13.748;2022-09-25T07:16:50;15.30;75.40
1958;DHT22;979;51.076;13.748;2022-09-25T07:19:19;15.30;75.40
1958;DHT22;979;51.076;13.748;2022-09-25T07:21:57;15.30;75.10
1958;DHT22;979;51.076;13.748;2022-09-25T07:24:25;15.30;75.00
1958;DHT22;979;51.076;13.748;2022-09-25T07:26:53;15.30;75.00
1958;DHT22;979;51.076;13.748;2022-09-25T07:29:21;15.20;74.90
1958;DHT22;979;51.076;13.748;2022-09-25T07:31:50;15.20;75.10
1958;DHT22;979;51.076;13.748;2022-09-25T07:34:18;15.20;74.90
1958;DHT22;979;51.076;13.748;2022-09-25T07:36:49;15.20;75.10
1958;DHT22;979;51.076;13.748;2022-09-25T07:39:23;15.20;75.10
1958;DHT22;979;51.076;13.748;2022-09-25T07:41:53;15.20;75.10
1958;DHT22;979;51.076;13.748;2022-09-25T07:44:21;15.30;75.20
1958;DHT22;979;51.076;13.748;2022-09-25T07:46:55;15.40;75.30
1958;DHT22;979;51.076;13.748;2022-09-25T07:49:24;15.50;75.30
1958;DHT22;979;51.076;13.748;2022-09-25T07:51:52;15.60;75.30
1958;DHT22;979;51.076;13.748;2022-09-25T07:54:20;15.60;75.20
1958;DHT22;979;51.076;13.748;2022-09-25T07:56:51;15.70;75.10
1958;DHT22;979;51.076;13.748;2022-09-25T07:59:19;15.80;75.10
1958;DHT22;979;51.076;13.748;2022-09-25T08:01:51;15.90;75.00
1958;DHT22;979;51.076;13.748;2022-09-25T08:04:20;16.00;74.60
1958;DHT22;979;51.076;13.748;2022-09-25T08:06:51;16.00;75.10
1958;DHT22;979;51.076;13.748;2022-09-25T08:09:21;16.10;74.50
1958;DHT22;979;51.076;13.748;2022-09-25T08:11:51;16.30;74.40
1958;DHT22;979;51.076;13.748;2022-09-25T08:14:22;16.50;74.30
1958;DHT22;979;51.076;13.748;2022-09-25T08:16:53;16.50;74.00
1958;DHT22;979;51.076;13.748;2022-09-25T08:19:22;16.60;74.00
1958;DHT22;979;51.076;13.748;2022-09-25T08:21:50;16.70;74.00
1958;DHT22;979;51.076;13.748;2022-09-25T08:24:18;16.90;73.70
1958;DHT22;979;51.076;13.748;2022-09-25T08:26:46;16.90;73.20
1958;DHT22;979;51.076;13.748;2022-09-25T08:29:17;17.10;73.20
1958;DHT22;979;51.076;13.748;2022-09-25T08:31:45;17.00;73.00
1958;DHT22;979;51.076;13.748;2022-09-25T08:34:13;17.10;72.90
1958;DHT22;979;51.076;13.748;2022-09-25T08:37:07;17.20;72.70
1958;DHT22;979;51.076;13.748;2022-09-25T08:39:35;17.20;72.70
1958;DHT22;979;51.076;13.748;2022-09-25T08:42:05;17.30;72.80
1958;DHT22;979;51.076;13.748;2022-09-25T08:44:44;17.40;72.60
1958;DHT22;979;51.076;13.748;2022-09-25T08:47:37;17.40;72.80
1958;DHT22;979;51.076;13.748;2022-09-25T08:50:27;17.60;72.60
1958;DHT22;979;51.076;13.748;2022-09-25T08:53:08;17.70;72.50
1958;DHT22;979;51.076;13.748;2022-09-25T08:55:42;17.80;72.30
1958;DHT22;979;51.076;13.748;2022-09-25T08:58:37;17.90;72.40
1958;DHT22;979;51.076;13.748;2022-09-25T09:01:17;18.00;71.70
1958;DHT22;979;51.076;13.748;2022-09-25T09:03:53;18.30;71.90
1958;DHT22;979;51.076;13.748;2022-09-25T09:06:27;18.00;71.20
1958;DHT22;979;51.076;13.748;2022-09-25T09:09:16;18.10;71.30
1958;DHT22;979;51.076;13.748;2022-09-25T09:11:54;18.10;71.20
1958;DHT22;979;51.076;13.748;2022-09-25T09:14:29;18.20;71.30
1958;DHT22;979;51.076;13.748;2022-09-25T09:17:04;18.20;71.10
1958;DHT22;979;51.076;13.748;2022-09-25T09:19:39;18.40;71.10
1958;DHT22;979;51.076;13.748;2022-09-25T09:22:19;18.30;71.00
1958;DHT22;979;51.076;13.748;2022-09-25T09:25:06;18.40;70.50
1958;DHT22;979;51.076;13.748;2022-09-25T09:28:01;18.60;70.60
1958;DHT22;979;51.076;13.748;2022-09-25T09:30:41;18.70;70.30
1958;DHT22;979;51.076;13.748;2022-09-25T09:33:38;18.80;70.10
1958;DHT22;979;51.076;13.748;2022-09-25T09:36:14;19.00;69.90
1958;DHT22;979;51.076;13.748;2022-09-25T09:39:04;19.00;69.60
1958;DHT22;979;51.076;13.748;2022-09-25T09:41:46;19.10;69.50
1958;DHT22;979;51.076;13.748;2022-09-25T09:44:26;19.10;68.80
1958;DHT22;979;51.076;13.748;2022-09-25T09:47:06;19.20;68.40
1958;DHT22;979;51.076;13.748;2022-09-25T09:50:02;19.30;68.30
1958;DHT22;979;51.076;13.748;2022-09-25T09:52:59;19.40;68.30
1958;DHT22;979;51.076;13.748;2022-09-25T09:55:36;19.50;68.10
1958;DHT22;979;51.076;13.748;2022-09-25T09:58:20;19.50;67.70
1958;DHT22;979;51.076;13.748;2022-09-25T10:01:42;19.70;67.30
1958;DHT22;979;51.076;13.748;2022-09-25T10:09:18;19.70;66.80
1958;DHT22;979;51.076;13.748;2022-09-25T10:12:32;19.90;67.60
1958;DHT22;979;51.076;13.748;2022-09-25T10:15:06;20.10;66.80
1958;DHT22;979;51.076;13.748;2022-09-25T10:17:44;20.30;66.90
1958;DHT22;979;51.076;13.748;2022-09-25T10:20:54;20.30;66.40
1958;DHT22;979;51.076;13.748;2022-09-25T10:24:16;20.40;65.70
1958;DHT22;979;51.076;13.748;2022-09-25T10:27:21;20.50;65.60
1958;DHT22;979;51.076;13.748;2022-09-25T10:30:19;20.40;64.60
1958;DHT22;979;51.076;13.748;2022-09-25T10:33:27;20.80;64.80
1958;DHT22;979;51.076;13.748;2022-09-25T10:36:37;21.10;64.40
1958;DHT22;979;51.076;13.748;2022-09-25T10:39:30;21.10;63.20
1958;DHT22;979;51.076;13.748;2022-09-25T10:42:46;21.00;63.00
1958;DHT22;979;51.076;13.748;2022-09-25T10:45:39;21.20;62.30
1958;DHT22;979;51.076;13.748;2022-09-25T10:48:28;21.30;62.10
1958;DHT22;979;51.076;13.748;2022-09-25T10:51:20;21.30;61.70
1958;DHT22;979;51.076;13.748;2022-09-25T10:54:17;21.40;61.40
1958;DHT22;979;51.076;13.748;2022-09-25T10:57:20;21.50;60.40
1958;DHT22;979;51.076;13.748;2022-09-25T11:04:03;21.60;59.20
1958;DHT22;979;51.076;13.748;2022-09-25T11:06:44;21.60;59.70
1958;DHT22;979;51.076;13.748;2022-09-25T11:09:41;21.70;59.20
1958;DHT22;979;51.076;13.748;2022-09-25T11:18:47;21.90;57.60
1958;DHT22;979;51.076;13.748;2022-09-25T11:22:17;22.00;58.00
1958;DHT22;979;51.076;13.748;2022-09-25T11:24:52;22.40;57.70
1958;DHT22;979;51.076;13.748;2022-09-25T11:27:33;23.10;58.10
1958;DHT22;979;51.076;13.748;2022-09-25T11:30:07;24.30;57.80
1958;DHT22;979;51.076;13.748;2022-09-25T11:32:57;25.30;57.20
1958;DHT22;979;51.076;13.748;2022-09-25T11:35:41;26.60;54.60
1958;DHT22;979;51.076;13.748;2022-09-25T11:38:22;27.60;53.60
1958;DHT22;979;51.076;13.748;2022-09-25T11:41:11;29.00;52.70
1958;DHT22;979;51.076;13.748;2022-09-25T11:44:06;29.90;52.00
1958;DHT22;979;51.076;13.748;2022-09-25T11:47:01;31.00;50.40
1958;DHT22;979;51.076;13.748;2022-09-25T11:49:37;32.80;49.70
1958;DHT22;979;51.076;13.748;2022-09-25T11:52:19;34.10;48.30
1958;DHT22;979;51.076;13.748;2022-09-25T11:55:23;35.20;46.40
1958;DHT22;979;51.076;13.748;2022-09-25T11:58:27;36.60;45.10
1958;DHT22;979;51.076;13.748;2022-09-25T12:01:10;37.60;43.80
1958;DHT22;979;51.076;13.748;2022-09-25T12:03:56;38.20;43.70
1958;DHT22;979;51.076;13.748;2022-09-25T12:06:45;38.60;42.80
1958;DHT22;979;51.076;13.748;2022-09-25T12:09:36;39.00;42.20
1958;DHT22;979;51.076;13.748;2022-09-25T12:12:16;39.10;42.20
1958;DHT22;979;51.076;13.748;2022-09-25T12:14:53;39.70;42.20
1958;DHT22;979;51.076;13.748;2022-09-25T12:17:45;40.10;41.50
1958;DHT22;979;51.076;13.748;2022-09-25T12:20:23;39.80;40.60
1958;DHT22;979;51.076;13.748;2022-09-25T12:23:14;39.00;40.40
1958;DHT22;979;51.076;13.748;2022-09-25T12:28:43;36.70;40.70
1958;DHT22;979;51.076;13.748;2022-09-25T12:31:27;35.80;40.70
1958;DHT22;979;51.076;13.748;2022-09-25T12:34:09;35.40;41.40
1958;DHT22;979;51.076;13.748;2022-09-25T12:36:47;35.40;41.30
1958;DHT22;979;51.076;13.748;2022-09-25T12:39:27;35.50;41.80
1958;DHT22;979;51.076;13.748;2022-09-25T12:42:06;35.80;41.30
1958;DHT22;979;51.076;13.748;2022-09-25T12:44:45;36.40;41.00
1958;DHT22;979;51.076;13.748;2022-09-25T12:47:21;37.30;40.90
1958;DHT22;979;51.076;13.748;2022-09-25T12:50:08;38.20;40.50
1958;DHT22;979;51.076;13.748;2022-09-25T12:52:41;38.90;39.90
1958;DHT22;979;51.076;13.748;2022-09-25T12:55:16;39.10;39.50
1958;DHT22;979;51.076;13.748;2022-09-25T12:58:12;39.10;39.40
1958;DHT22;979;51.076;13.748;2022-09-25T13:00:51;39.50;38.90
1958;DHT22;979;51.076;13.748;2022-09-25T13:03:41;39.60;38.90
1958;DHT22;979;51.076;13.748;2022-09-25T13:06:18;39.80;38.60
1958;DHT22;979;51.076;13.748;2022-09-25T13:08:53;40.10;38.40
1958;DHT22;979;51.076;13.748;2022-09-25T13:11:35;40.20;38.30
1958;DHT22;979;51.076;13.748;2022-09-25T13:14:15;40.70;37.80
1958;DHT22;979;51.076;13.748;2022-09-25T13:16:47;41.20;37.50
1958;DHT22;979;51.076;13.748;2022-09-25T13:19:25;41.50;38.10
1958;DHT22;979;51.076;13.748;2022-09-25T13:22:02;41.70;37.30
1958;DHT22;979;51.076;13.748;2022-09-25T13:24:37;41.80;36.30
1958;DHT22;979;51.076;13.748;2022-09-25T13:27:28;41.90;35.80
1958;DHT22;979;51.076;13.748;2022-09-25T13:30:17;41.70;36.10
1958;DHT22;979;51.076;13.748;2022-09-25T13:32:52;41.80;36.60
1958;DHT22;979;51.076;13.748;2022-09-25T13:35:22;41.80;36.30
1958;DHT22;979;51.076;13.748;2022-09-25T13:37:52;41.90;36.20
1958;DHT22;979;51.076;13.748;2022-09-25T13:40:23;42.00;36.20
1958;DHT22;979;51.076;13.748;2022-09-25T13:43:20;41.90;36.00
1958;DHT22;979;51.076;13.748;2022-09-25T13:46:23;41.90;35.90
1958;DHT22;979;51.076;13.748;2022-09-25T13:48:53;41.80;35.30
1958;DHT22;979;51.076;13.748;2022-09-25T13:51:37;40.90;35.40
1958;DHT22;979;51.076;13.748;2022-09-25T13:54:24;39.20;35.40
1958;DHT22;979;51.076;13.748;2022-09-25T13:57:00;37.60;36.20
1958;DHT22;979;51.076;13.748;2022-09-25T13:59:40;36.10;37.10
1958;DHT22;979;51.076;13.748;2022-09-25T14:02:37;34.90;38.50
1958;DHT22;979;51.076;13.748;2022-09-25T14:05:13;34.30;38.60
1958;DHT22;979;51.076;13.748;2022-09-25T14:07:43;33.80;39.00
1958;DHT22;979;51.076;13.748;2022-09-25T14:10:12;33.20;39.40
1958;DHT22;979;51.076;13.748;2022-09-25T14:12:43;32.40;39.50
1958;DHT22;979;51.076;13.748;2022-09-25T14:15:21;31.70;40.00
1958;DHT22;979;51.076;13.748;2022-09-25T14:17:52;30.90;40.60
1958;DHT22;979;51.076;13.748;2022-09-25T14:20:42;30.30;41.30
1958;DHT22;979;51.076;13.748;2022-09-25T14:23:14;29.60;41.80
1958;DHT22;979;51.076;13.748;2022-09-25T14:25:42;29.10;42.20
1958;DHT22;979;51.076;13.748;2022-09-25T14:28:17;28.50;42.80
1958;DHT22;979;51.076;13.748;2022-09-25T14:31:13;28.00;43.50
1958;DHT22;979;51.076;13.748;2022-09-25T14:36:37;27.30;44.30
1958;DHT22;979;51.076;13.748;2022-09-25T14:39:23;27.10;44.60
1958;DHT22;979;51.076;13.748;2022-09-25T14:45:12;26.80;45.40
1958;DHT22;979;51.076;13.748;2022-09-25T14:47:50;26.70;45.80
1958;DHT22;979;51.076;13.748;2022-09-25T14:50:32;26.50;45.60
1958;DHT22;979;51.076;13.748;2022-09-25T14:53:14;26.30;45.90
1958;DHT22;979;51.076;13.748;2022-09-25T14:55:48;26.10;46.20
1958;DHT22;979;51.076;13.748;2022-09-25T14:58:20;25.90;46.40
1958;DHT22;979;51.076;13.748;2022-09-25T15:00:53;25.80;46.80
1958;DHT22;979;51.076;13.748;2022-09-25T15:03:26;25.70;46.80
1958;DHT22;979;51.076;13.748;2022-09-25T15:05:58;25.60;46.70
1958;DHT22;979;51.076;13.748;2022-09-25T15:08:35;25.50;46.90
1958;DHT22;979;51.076;13.748;2022-09-25T15:11:10;25.30;47.10
1958;DHT22;979;51.076;13.748;2022-09-25T15:13:39;25.10;47.20
1958;DHT22;979;51.076;13.748;2022-09-25T15:16:13;25.00;47.60
1958;DHT22;979;51.076;13.748;2022-09-25T15:19:02;24.70;47.80
1958;DHT22;979;51.076;13.748;2022-09-25T15:21:35;24.50;48.00
1958;DHT22;979;51.076;13.748;2022-09-25T15:24:11;24.30;48.30
1958;DHT22;979;51.076;13.748;2022-09-25T15:26:45;24.10;48.60
1958;DHT22;979;51.076;13.748;2022-09-25T15:29:19;24.00;49.00
1958;DHT22;979;51.076;13.748;2022-09-25T15:31:49;24.00;49.20
1958;DHT22;979;51.076;13.748;2022-09-25T15:34:24;23.90;49.40
1958;DHT22;979;51.076;13.748;2022-09-25T15:36:53;23.90;49.70
1958;DHT22;979;51.076;13.748;2022-09-25T15:39:23;23.80;49.70
1958;DHT22;979;51.076;13.748;2022-09-25T15:41:53;23.70;49.70
1958;DHT22;979;51.076;13.748;2022-09-25T15:44:24;23.60;49.90
1958;DHT22;979;51.076;13.748;2022-09-25T15:46:53;23.40;50.00
1958;DHT22;979;51.076;13.748;2022-09-25T15:49:27;23.20;50.20
1958;DHT22;979;51.076;13.748;2022-09-25T15:51:58;23.10;50.60
1958;DHT22;979;51.076;13.748;2022-09-25T15:54:32;23.00;50.80
1958;DHT22;979;51.076;13.748;2022-09-25T15:57:04;22.90;51.10
1958;DHT22;979;51.076;13.748;2022-09-25T15:59:35;22.80;51.20
1958;DHT22;979;51.076;13.748;2022-09-25T16:02:27;22.80;51.30
1958;DHT22;979;51.076;13.748;2022-09-25T16:05:26;22.70;51.40
1958;DHT22;979;51.076;13.748;2022-09-25T16:08:14;22.60;51.40
1958;DHT22;979;51.076;13.748;2022-09-25T16:10:45;22.50;51.60
1958;DHT22;979;51.076;13.748;2022-09-25T16:13:20;22.50;51.70
1958;DHT22;979;51.076;13.748;2022-09-25T16:15:50;22.40;51.70
1958;DHT22;979;51.076;13.748;2022-09-25T16:18:25;22.40;52.00
1958;DHT22;979;51.076;13.748;2022-09-25T16:21:05;22.30;52.30
1958;DHT22;979;51.076;13.748;2022-09-25T16:23:35;22.20;52.40
1958;DHT22;979;51.076;13.748;2022-09-25T16:26:04;22.10;52.70
1958;DHT22;979;51.076;13.748;2022-09-25T16:28:49;22.00;52.90
1958;DHT22;979;51.076;13.748;2022-09-25T16:31:20;22.00;53.40
1958;DHT22;979;51.076;13.748;2022-09-25T16:33:52;21.90;53.60
1958;DHT22;979;51.076;13.748;2022-09-25T16:36:25;21.80;54.00
1958;DHT22;979;51.076;13.748;2022-09-25T16:39:12;21.70;54.50
1958;DHT22;979;51.076;13.748;2022-09-25T16:41:48;21.60;55.20
1958;DHT22;979;51.076;13.748;2022-09-25T16:45:22;21.50;55.60
1958;DHT22;979;51.076;13.748;2022-09-25T16:48:35;21.30;55.70
1958;DHT22;979;51.076;13.748;2022-09-25T16:51:23;21.20;56.10
1958;DHT22;979;51.076;13.748;2022-09-25T16:54:21;21.00;56.50
1958;DHT22;979;51.076;13.748;2022-09-25T16:57:37;20.90;56.40
1958;DHT22;979;51.076;13.748;2022-09-25T17:00:21;20.70;56.60
1958;DHT22;979;51.076;13.748;2022-09-25T17:03:18;20.50;57.20
1958;DHT22;979;51.076;13.748;2022-09-25T17:06:11;20.20;57.60
1958;DHT22;979;51.076;13.748;2022-09-25T17:08:40;20.30;57.80
1958;DHT22;979;51.076;13.748;2022-09-25T17:11:39;20.20;58.30
1958;DHT22;979;51.076;13.748;2022-09-25T17:15:03;20.10;58.80
1958;DHT22;979;51.076;13.748;2022-09-25T17:17:46;19.90;58.10
1958;DHT22;979;51.076;13.748;2022-09-25T17:20:25;19.80;59.00
1958;DHT22;979;51.076;13.748;2022-09-25T17:23:00;19.70;59.30
1958;DHT22;979;51.076;13.748;2022-09-25T17:25:40;19.60;59.30
1958;DHT22;979;51.076;13.748;2022-09-25T17:28:17;19.60;60.00
1958;DHT22;979;51.076;13.748;2022-09-25T17:30:52;19.30;60.50
1958;DHT22;979;51.076;13.748;2022-09-25T17:46:38;18.70;61.50
1958;DHT22;979;51.076;13.748;2022-09-25T17:49:07;18.60;62.50